LROD - ORADEA

Compiled: 17:59:44 on 22/07/2018

Latest METAR/SPECI Reports

METAR LROD 221730Z 25005KT 9999 FEW035 24/18 Q1009=

Previous reports

METAR LROD 221700Z 27003KT 9999 FEW030 FEW032CB 26/17 Q1009=
METAR LROD 221630Z 00000KT 9999 FEW032 26/17 Q1009=
METAR LROD 221600Z 30004KT 9999 FEW031 26/18 Q1009 R01/CLRD//=
METAR LROD 221530Z 25002KT 170V320 9999 FEW030 27/18 Q1008 R01/29//95=

Latest TAF report

TAF LROD 221700Z 2218/2303 VRB04KT 9999 FEW035 TEMPO 2218/2220 FEW035CB PROB30 2218/2220 -TSRA PROB40 TEMPO 2223/2303 3000 BR=

Valid WARNINGS

No valid warnings for LROD